createdAt,value
2019-01-03T00:01:56.468Z,97076.34
2019-01-03T00:04:33.251Z,97075.12
2019-01-03T00:07:20.446Z,97074.44
2019-01-03T00:09:53.938Z,97076.13
2019-01-03T00:12:25.001Z,97088.25
2019-01-03T00:14:54.199Z,97094.58
2019-01-03T00:17:25.271Z,97098.34
2019-01-03T00:20:11.555Z,97091.39
2019-01-03T00:22:59.790Z,97098.17
2019-01-03T00:25:33.287Z,97102.89
2019-01-03T00:28:20.263Z,97101.55
2019-01-03T00:31:03.054Z,97104.72
2019-01-03T00:33:50.257Z,97105.28
2019-01-03T00:36:37.543Z,97106.70
2019-01-03T00:39:24.496Z,97109.30
2019-01-03T00:42:11.871Z,97106.03
2019-01-03T00:44:59.201Z,97113.98
2019-01-03T00:47:46.823Z,97120.42
2019-01-03T00:50:34.227Z,97123.09
2019-01-03T00:53:06.389Z,97130.28
2019-01-03T00:55:53.610Z,97135.53
2019-01-03T00:58:33.349Z,97143.07
2019-01-03T01:01:07.628Z,97147.02
2019-01-03T01:03:56.701Z,97147.02
2019-01-03T01:06:45.812Z,97141.30
2019-01-03T01:09:22.605Z,97150.47
2019-01-03T01:12:09.886Z,97144.19
2019-01-03T01:14:52.908Z,97151.95
2019-01-03T01:17:26.671Z,97160.09
2019-01-03T01:19:57.730Z,97154.80
2019-01-03T01:22:31.459Z,97155.89
2019-01-03T01:25:02.525Z,97164.74
2019-01-03T01:27:36.261Z,97174.70
2019-01-03T01:30:26.297Z,97174.52
2019-01-03T01:33:00.093Z,97171.20
2019-01-03T01:35:47.397Z,97182.64
2019-01-03T01:38:22.825Z,97177.31
2019-01-03T01:40:53.885Z,97180.56
2019-01-03T01:43:28.881Z,97180.78
2019-01-03T01:46:05.937Z,97179.33
2019-01-03T01:48:52.804Z,97182.92
2019-01-03T01:51:26.619Z,97188.00
2019-01-03T01:53:57.699Z,97181.52
2019-01-03T01:56:41.572Z,97183.69
2019-01-03T01:59:15.022Z,97186.02
2019-01-03T02:01:46.089Z,97183.91
2019-01-03T02:04:32.995Z,97189.58
2019-01-03T02:07:07.008Z,97191.45
2019-01-03T02:09:46.820Z,97190.13
2019-01-03T02:12:17.907Z,97195.22
2019-01-03T02:14:51.954Z,97197.94
2019-01-03T02:17:26.070Z,97202.63
2019-01-03T02:20:00.268Z,97203.23
2019-01-03T02:22:31.446Z,97205.49
2019-01-03T02:25:02.569Z,97196.66
2019-01-03T02:27:39.367Z,97198.17
2019-01-03T02:30:10.703Z,97199.20
2019-01-03T02:32:58.198Z,97192.83
2019-01-03T02:35:45.398Z,97199.83
2019-01-03T02:38:25.278Z,97198.08
2019-01-03T02:41:08.308Z,97192.41
2019-01-03T02:43:41.976Z,97199.81
2019-01-03T02:46:16.747Z,97202.44
2019-01-03T02:48:47.818Z,97206.26
2019-01-03T02:51:17.034Z,97203.19
2019-01-03T02:54:04.306Z,97206.36
2019-01-03T02:56:51.155Z,97204.34
2019-01-03T02:59:24.890Z,97204.06
2019-01-03T03:02:09.093Z,97206.58
2019-01-03T03:04:40.186Z,97205.41
2019-01-03T03:07:27.353Z,97201.41
2019-01-03T03:10:01.253Z,97198.97
2019-01-03T03:12:38.266Z,97203.34
2019-01-03T03:15:18.028Z,97202.20
2019-01-03T03:17:49.126Z,97205.98
2019-01-03T03:20:20.181Z,97203.98
2019-01-03T03:22:51.238Z,97207.81
2019-01-03T03:25:31.106Z,97205.11
2019-01-03T03:28:12.234Z,97205.18
2019-01-03T03:30:59.400Z,97197.42
2019-01-03T03:33:45.489Z,97201.52
2019-01-03T03:36:22.702Z,97204.94
2019-01-03T03:38:59.323Z,97210.00
2019-01-03T03:41:36.207Z,97207.84
2019-01-03T03:44:07.290Z,97205.13
2019-01-03T03:46:38.358Z,97208.11
2019-01-03T03:49:25.570Z,97200.77
2019-01-03T03:52:00.259Z,97200.47
2019-01-03T03:54:47.571Z,97202.03
2019-01-03T03:57:34.627Z,97204.26
2019-01-03T04:00:13.070Z,97204.30
2019-01-03T04:03:00.303Z,97215.40
2019-01-03T04:05:47.409Z,97199.97
2019-01-03T04:08:24.055Z,97206.30
2019-01-03T04:11:03.679Z,97203.47
2019-01-03T04:13:43.303Z,97201.63
2019-01-03T04:16:17.031Z,97198.52
2019-01-03T04:19:06.375Z,97192.31
2019-01-03T04:21:53.189Z,97186.70
2019-01-03T04:24:24.286Z,97186.95
2019-01-03T04:27:01.075Z,97186.06
2019-01-03T04:29:37.843Z,97187.05
2019-01-03T04:32:17.558Z,97175.91
2019-01-03T04:34:57.592Z,97170.08
2019-01-03T04:37:43.779Z,97169.16
2019-01-03T04:40:14.846Z,97170.42
2019-01-03T04:42:48.887Z,97168.91
2019-01-03T04:45:22.622Z,97166.42
2019-01-03T04:48:11.808Z,97169.59
2019-01-03T04:50:53.044Z,97166.61
2019-01-03T04:53:27.057Z,97158.98
2019-01-03T04:56:14.038Z,97163.07
2019-01-03T04:59:01.445Z,97168.16
2019-01-03T05:02:05.194Z,97175.70
2019-01-03T05:04:41.996Z,97170.37
2019-01-03T05:07:29.298Z,97177.61
2019-01-03T05:10:16.824Z,97189.86
2019-01-03T05:13:07.639Z,97191.45
2019-01-03T05:15:54.493Z,97196.05
2019-01-03T05:18:28.263Z,97195.06
2019-01-03T05:21:14.422Z,97193.25
2019-01-03T05:23:57.361Z,97201.53
2019-01-03T05:26:41.841Z,97197.73
2019-01-03T05:29:12.900Z,97201.08
2019-01-03T05:31:47.604Z,97209.31
2019-01-03T05:34:24.365Z,97211.63
2019-01-03T05:37:11.594Z,97215.09
2019-01-03T05:40:00.890Z,97218.56
2019-01-03T05:42:34.756Z,97219.18
2019-01-03T05:45:24.473Z,97222.59
2019-01-03T05:48:11.700Z,97224.34
2019-01-03T05:50:48.683Z,97229.48
2019-01-03T05:53:25.495Z,97233.64
2019-01-03T05:56:14.344Z,97232.55
2019-01-03T05:58:43.549Z,97233.86
2019-01-03T06:01:14.620Z,97240.25
2019-01-03T06:03:46.279Z,97239.49
2019-01-03T06:06:29.481Z,97240.33
2019-01-03T06:09:02.961Z,97245.44
2019-01-03T06:11:34.034Z,97253.09
2019-01-03T06:14:07.937Z,97258.56
2019-01-03T06:16:54.094Z,97250.64
2019-01-03T06:19:37.136Z,97245.70
2019-01-03T06:22:14.211Z,97244.48
2019-01-03T06:24:45.289Z,97243.66
2019-01-03T06:27:32.403Z,97247.27
2019-01-03T06:30:15.122Z,97250.88
2019-01-03T06:32:58.499Z,97255.52
2019-01-03T06:35:45.671Z,97251.08
2019-01-03T06:38:16.743Z,97254.87
2019-01-03T06:41:04.774Z,97255.55
2019-01-03T06:43:51.930Z,97254.61
2019-01-03T06:46:37.657Z,97258.08
2019-01-03T06:49:09.805Z,97265.39
2019-01-03T06:51:46.625Z,97267.13
2019-01-03T06:54:32.745Z,97269.48
2019-01-03T06:57:09.874Z,97281.23
2019-01-03T06:59:43.368Z,97283.17
2019-01-03T07:02:30.651Z,97284.59
2019-01-03T07:05:20.329Z,97286.64
2019-01-03T07:08:16.946Z,97292.14
2019-01-03T07:11:00.037Z,97295.78
2019-01-03T07:13:36.627Z,97300.86
2019-01-03T07:16:24.098Z,97308.47
2019-01-03T07:19:10.220Z,97304.84
2019-01-03T07:21:44.059Z,97310.53
2019-01-03T07:24:15.138Z,97304.44
2019-01-03T07:26:51.993Z,97301.19
2019-01-03T07:29:23.926Z,97305.55
2019-01-03T07:32:06.721Z,97304.59
2019-01-03T07:34:38.865Z,97304.59
2019-01-03T07:37:25.000Z,97296.66
2019-01-03T07:40:09.064Z,97291.05
2019-01-03T07:42:58.203Z,97293.56
2019-01-03T07:45:44.435Z,97298.30
2019-01-03T07:48:31.741Z,97298.45
2019-01-03T07:51:18.643Z,97305.17
2019-01-03T07:53:55.557Z,97310.16
2019-01-03T07:56:42.978Z,97315.41
2019-01-03T07:59:29.894Z,97325.37
2019-01-03T08:02:10.104Z,97323.38
2019-01-03T08:04:43.829Z,97329.94
2019-01-03T08:07:14.916Z,97324.69
2019-01-03T08:10:02.131Z,97327.13
2019-01-03T08:12:49.696Z,97335.99
2019-01-03T08:15:26.591Z,97330.69
2019-01-03T08:18:00.297Z,97326.39
2019-01-03T08:20:38.387Z,97327.91
2019-01-03T08:23:09.450Z,97320.45
2019-01-03T08:25:43.177Z,97323.29
2019-01-03T08:28:17.167Z,97321.34
2019-01-03T08:30:46.361Z,97332.73
2019-01-03T08:33:20.369Z,97317.25
2019-01-03T08:35:54.077Z,97332.95
2019-01-03T08:38:40.929Z,97329.65
2019-01-03T08:41:30.156Z,97329.79
2019-01-03T08:44:05.534Z,97330.95
2019-01-03T08:46:48.634Z,97333.78
2019-01-03T08:49:17.865Z,97334.16
2019-01-03T08:52:03.720Z,97331.11
2019-01-03T08:54:40.477Z,97337.62
2019-01-03T08:57:11.561Z,97341.98
2019-01-03T08:59:42.642Z,97343.14
2019-01-03T09:02:29.756Z,97339.09
2019-01-03T09:05:07.438Z,97342.20
2019-01-03T09:07:47.141Z,97333.87
2019-01-03T09:10:30.322Z,97336.17
2019-01-03T09:13:11.025Z,97337.25
2019-01-03T09:15:42.101Z,97337.35
2019-01-03T09:18:13.166Z,97345.72
2019-01-03T09:21:00.254Z,97353.53
2019-01-03T09:23:49.590Z,97349.53
2019-01-03T09:26:36.922Z,97349.08
2019-01-03T09:29:08.017Z,97350.50
2019-01-03T09:31:42.090Z,97357.78
2019-01-03T09:34:27.841Z,97354.38
2019-01-03T09:37:04.765Z,97351.74
2019-01-03T09:39:41.275Z,97347.95
2019-01-03T09:42:28.708Z,97355.30
2019-01-03T09:44:58.138Z,97354.14
2019-01-03T09:47:27.570Z,97349.84
2019-01-03T09:49:56.998Z,97341.41
2019-01-03T09:52:26.422Z,97331.78
2019-01-03T09:54:55.857Z,97336.61
2019-01-03T09:57:25.280Z,97331.89
2019-01-03T09:59:54.704Z,97333.88
2019-01-03T10:02:24.139Z,97332.04
2019-01-03T10:04:53.571Z,97324.21
2019-01-03T10:07:22.983Z,97319.13
2019-01-03T10:09:52.442Z,97326.64
2019-01-03T10:12:21.898Z,97326.69
2019-01-03T10:14:51.346Z,97321.41
2019-01-03T10:17:20.771Z,97318.55
2019-01-03T10:19:50.213Z,97316.33
2019-01-03T10:22:19.653Z,97315.26
2019-01-03T10:24:49.087Z,97313.22
2019-01-03T10:27:18.515Z,97310.85
2019-01-03T10:29:47.966Z,97306.45
2019-01-03T10:32:17.394Z,97310.78
2019-01-03T10:34:46.842Z,97314.69
2019-01-03T10:37:16.292Z,97309.36
2019-01-03T10:39:45.721Z,97310.43
2019-01-03T10:42:15.147Z,97305.59
2019-01-03T10:44:44.596Z,97298.91
2019-01-03T10:47:14.025Z,97304.27
2019-01-03T10:49:43.461Z,97290.40
2019-01-03T10:52:12.868Z,97289.28
2019-01-03T10:54:42.292Z,97289.84
2019-01-03T10:57:11.723Z,97285.58
2019-01-03T10:59:41.157Z,97282.41
2019-01-03T11:02:10.581Z,97278.84
2019-01-03T11:04:40.005Z,97273.55
2019-01-03T11:07:09.433Z,97274.52
2019-01-03T11:09:38.856Z,97269.77
2019-01-03T11:12:08.350Z,97267.97
2019-01-03T11:14:37.775Z,97265.80
2019-01-03T11:17:07.201Z,97260.49
2019-01-03T11:19:36.631Z,97258.34
2019-01-03T11:22:06.061Z,97250.52
2019-01-03T11:24:35.481Z,97244.09
2019-01-03T11:27:04.911Z,97248.52
2019-01-03T11:29:34.348Z,97245.95
2019-01-03T11:32:03.784Z,97244.45
2019-01-03T11:34:33.203Z,97235.31
2019-01-03T11:37:02.648Z,97230.82
2019-01-03T11:39:32.075Z,97225.91
2019-01-03T11:42:01.488Z,97223.97
2019-01-03T11:44:30.924Z,97221.77
2019-01-03T11:47:00.343Z,97219.39
2019-01-03T11:49:29.781Z,97222.28
2019-01-03T11:51:59.210Z,97220.16
2019-01-03T11:54:28.641Z,97211.54
2019-01-03T11:56:58.087Z,97206.44
2019-01-03T11:59:27.514Z,97200.67
2019-01-03T12:01:56.945Z,97188.08
2019-01-03T12:04:26.379Z,97179.22
2019-01-03T12:06:55.814Z,97182.28
2019-01-03T12:09:25.247Z,97170.19
2019-01-03T12:11:54.678Z,97173.70
2019-01-03T12:14:24.108Z,97176.30
2019-01-03T12:16:53.529Z,97166.98
2019-01-03T12:19:23.001Z,97171.98
2019-01-03T12:21:52.434Z,97159.73
2019-01-03T12:24:21.883Z,97176.82
2019-01-03T12:26:51.320Z,97170.28
2019-01-03T12:29:20.777Z,97167.30
2019-01-03T12:31:50.206Z,97156.89
2019-01-03T12:34:19.663Z,97157.04
2019-01-03T12:36:49.103Z,97162.22
2019-01-03T12:39:18.563Z,97157.34
2019-01-03T12:41:48.007Z,97166.13
2019-01-03T12:44:17.432Z,97166.70
2019-01-03T12:46:46.868Z,97165.02
2019-01-03T12:49:16.326Z,97157.91
2019-01-03T12:51:46.040Z,97168.69
2019-01-03T12:54:15.498Z,97166.58
2019-01-03T12:56:44.917Z,97166.79
2019-01-03T12:59:14.361Z,97165.42
2019-01-03T13:01:43.780Z,97170.59
2019-01-03T13:04:13.242Z,97173.72
2019-01-03T13:06:42.658Z,97170.44
2019-01-03T13:09:31.446Z,97166.46
2019-01-03T13:12:20.228Z,97171.39
2019-01-03T13:15:09.085Z,97114.52
2019-01-03T13:17:57.895Z,97163.67
2019-01-03T13:20:46.695Z,97157.54
2019-01-03T13:23:35.473Z,97154.27
2019-01-03T13:26:24.249Z,97154.55
2019-01-03T13:29:13.114Z,97151.70
2019-01-03T13:32:01.885Z,97152.14
2019-01-03T13:34:50.668Z,97154.13
2019-01-03T13:37:39.423Z,97154.25
2019-01-03T13:40:28.201Z,97156.91
2019-01-03T13:43:10.266Z,97095.54
2019-01-03T13:45:59.059Z,97156.39
2019-01-03T13:48:47.826Z,97120.19
2019-01-03T13:51:36.638Z,97152.08
2019-01-03T13:54:25.407Z,97171.57
2019-01-03T13:57:14.197Z,97129.94
2019-01-03T14:00:03.104Z,97071.63
2019-01-03T14:02:51.882Z,97165.25
2019-01-03T14:05:47.433Z,97129.45
2019-01-03T14:08:36.204Z,97162.62
2019-01-03T14:11:25.016Z,97127.35
2019-01-03T14:14:13.841Z,97171.12
2019-01-03T14:17:02.651Z,97162.73
2019-01-03T14:19:51.437Z,97178.34
2019-01-03T14:22:33.220Z,97099.45
2019-01-03T14:25:22.016Z,97185.70
2019-01-03T14:28:10.782Z,97180.98
2019-01-03T14:30:59.592Z,97187.69
2019-01-03T14:33:48.348Z,97098.09
2019-01-03T14:36:37.181Z,97178.44
2019-01-03T14:39:25.958Z,97173.28
2019-01-03T14:42:14.780Z,97187.70
2019-01-03T14:48:18.690Z,97070.62
2019-01-03T14:51:07.500Z,97129.51
2019-01-03T14:53:56.340Z,97164.67
2019-01-03T14:56:45.122Z,97168.30
2019-01-03T14:59:33.921Z,97165.00
2019-01-03T15:02:22.759Z,97120.89
2019-01-03T15:05:14.059Z,97168.14
2019-01-03T15:08:02.031Z,97161.31
2019-01-03T15:10:50.848Z,97157.81
2019-01-03T15:13:39.624Z,97161.79
2019-01-03T15:16:28.436Z,97159.20
2019-01-03T15:19:17.214Z,97075.22
2019-01-03T15:22:06.053Z,97113.09
2019-01-03T15:24:54.819Z,97173.22
2019-01-03T15:27:43.721Z,97171.39
2019-01-03T15:30:32.469Z,97168.88
2019-01-03T15:33:21.291Z,97157.84
2019-01-03T15:36:10.053Z,97157.06
2019-01-03T15:38:58.817Z,97143.46
2019-01-03T15:41:47.591Z,97154.00
2019-01-03T15:44:36.350Z,97149.50
2019-01-03T15:47:25.118Z,97134.81
2019-01-03T15:49:54.547Z,97130.48
2019-01-03T15:52:24.072Z,97126.44
2019-01-03T15:54:53.515Z,97128.48
2019-01-03T15:57:42.531Z,97123.16
2019-01-03T16:00:31.357Z,97122.36
2019-01-03T16:03:20.151Z,97126.58
2019-01-03T16:06:02.037Z,97126.58
2019-01-03T16:08:31.613Z,97126.80
2019-01-03T16:11:20.394Z,97117.91
2019-01-03T16:14:09.199Z,97119.70
2019-01-03T16:16:57.997Z,97034.07
2019-01-03T16:19:27.419Z,97074.59
2019-01-03T16:22:15.980Z,97126.21
2019-01-03T16:28:33.498Z,97138.33
2019-01-03T16:34:16.641Z,97130.05
2019-01-03T16:37:05.445Z,97132.72
2019-01-03T16:39:54.220Z,97028.04
2019-01-03T16:42:43.304Z,97139.16
2019-01-03T16:48:32.603Z,97126.83
2019-01-03T16:51:21.392Z,97153.60
2019-01-03T16:54:10.197Z,97144.17
2019-01-03T16:56:59.007Z,97143.09
2019-01-03T16:59:47.775Z,97143.52
2019-01-03T17:05:31.581Z,97122.53
2019-01-03T17:08:20.343Z,97149.34
2019-01-03T17:11:09.120Z,97145.44
2019-01-03T17:13:57.924Z,97143.13
2019-01-03T17:16:46.700Z,97135.66
2019-01-03T17:19:35.474Z,97130.77
2019-01-03T17:22:24.309Z,97127.46
2019-01-03T17:25:13.070Z,97128.37
2019-01-03T17:27:54.946Z,97125.12
2019-01-03T17:30:43.708Z,97096.23
2019-01-03T17:33:32.484Z,97079.52
2019-01-03T17:36:21.269Z,97088.08
2019-01-03T17:39:10.063Z,97131.95
2019-01-03T17:41:58.834Z,97134.58
2019-01-03T17:44:47.649Z,97122.09
2019-01-03T17:47:17.079Z,97145.47
2019-01-03T17:49:46.547Z,97145.96
2019-01-03T17:52:15.983Z,97135.72
2019-01-03T17:54:45.469Z,97129.41
2019-01-03T17:57:34.923Z,97123.97
2019-01-03T18:00:23.741Z,97126.27
2019-01-03T18:03:12.607Z,97126.51
2019-01-03T18:06:01.455Z,97128.33
2019-01-03T18:08:50.264Z,97133.20
2019-01-03T18:11:39.120Z,97046.14
2019-01-03T18:14:27.987Z,97127.38
2019-01-03T18:17:16.737Z,97097.83
2019-01-03T18:20:26.495Z,97123.20
2019-01-03T18:23:15.062Z,97122.73
2019-01-03T18:26:03.794Z,97131.92
2019-01-03T18:28:33.253Z,97132.44
2019-01-03T18:31:22.043Z,97128.77
2019-01-03T18:37:05.575Z,97106.84
2019-01-03T18:39:54.383Z,97146.41
2019-01-03T18:42:43.236Z,97142.30
2019-01-03T18:45:32.014Z,97141.98
2019-01-03T18:48:20.832Z,97050.23
2019-01-03T18:51:09.613Z,97114.08
2019-01-03T18:53:58.428Z,97098.58
2019-01-03T18:56:47.188Z,97148.84
2019-01-03T18:59:35.974Z,97139.59
2019-01-03T19:02:24.732Z,97144.65
2019-01-03T19:05:13.499Z,97037.78
2019-01-03T19:08:02.273Z,97133.74
2019-01-03T19:10:31.704Z,97122.84
2019-01-03T19:13:01.131Z,97138.41
2019-01-03T19:15:30.563Z,97135.84
2019-01-03T19:18:00.005Z,97142.78
2019-01-03T19:20:29.434Z,97140.63
2019-01-03T19:22:58.861Z,97135.49
2019-01-03T19:25:28.284Z,97127.68
2019-01-03T19:27:57.719Z,97131.27
2019-01-03T19:30:27.179Z,97134.57
2019-01-03T19:32:56.698Z,97134.16
2019-01-03T19:35:27.096Z,97136.91
2019-01-03T19:37:56.523Z,97134.57
2019-01-03T19:40:25.954Z,97140.81
2019-01-03T19:42:55.375Z,97151.37
2019-01-03T19:45:25.308Z,97156.77
2019-01-03T19:47:54.702Z,97161.30
2019-01-03T19:50:24.139Z,97165.09
2019-01-03T19:52:53.574Z,97164.13
2019-01-03T19:55:22.997Z,97163.36
2019-01-03T19:57:52.439Z,97161.53
2019-01-03T20:00:22.349Z,97166.65
2019-01-03T20:02:51.826Z,97166.40
2019-01-03T20:05:21.237Z,97159.83
2019-01-03T20:07:50.658Z,97158.00
2019-01-03T20:10:20.092Z,97162.36
2019-01-03T20:12:49.516Z,97165.03
2019-01-03T20:15:19.026Z,97158.55
2019-01-03T20:17:48.501Z,97157.53
2019-01-03T20:20:17.925Z,97165.92
2019-01-03T20:22:47.404Z,97160.27
2019-01-03T20:25:16.820Z,97163.77
2019-01-03T20:27:46.277Z,97158.00
2019-01-03T20:30:15.713Z,97158.00
2019-01-03T20:32:45.184Z,97153.91
2019-01-03T20:35:14.621Z,97164.58
2019-01-03T20:37:44.079Z,97161.66
2019-01-03T20:40:13.501Z,97158.42
2019-01-03T20:42:42.964Z,97153.42
2019-01-03T20:45:13.728Z,97164.81
2019-01-03T20:47:43.214Z,97154.52
2019-01-03T20:50:13.783Z,97154.04
2019-01-03T20:52:43.246Z,97152.09
2019-01-03T20:55:12.842Z,97148.16
2019-01-03T20:57:42.312Z,97163.91
2019-01-03T21:00:15.045Z,97170.78
2019-01-03T21:02:44.613Z,97156.61
2019-01-03T21:05:14.174Z,97164.66
2019-01-03T21:07:43.647Z,97167.69
2019-01-03T21:10:13.484Z,97167.78
2019-01-03T21:12:43.036Z,97166.59
2019-01-03T21:15:15.868Z,97166.34
2019-01-03T21:17:46.446Z,97176.91
2019-01-03T21:20:17.109Z,97173.80
2019-01-03T21:22:46.615Z,97177.39
2019-01-03T21:25:16.084Z,97176.62
2019-01-03T21:27:45.552Z,97172.61
2019-01-03T21:30:17.887Z,97170.46
2019-01-03T21:32:47.381Z,97171.74
2019-01-03T21:35:16.803Z,97173.22
2019-01-03T21:37:46.275Z,97172.91
2019-01-03T21:40:16.072Z,97169.00
2019-01-03T21:42:45.554Z,97177.84
2019-01-03T21:45:14.996Z,97175.73
2019-01-03T21:47:44.414Z,97175.68
2019-01-03T21:50:14.024Z,97169.98
2019-01-03T21:52:43.449Z,97177.28
2019-01-03T21:55:12.876Z,97174.66
2019-01-03T21:57:42.333Z,97168.89
2019-01-03T22:00:12.896Z,97168.09
2019-01-03T22:02:42.328Z,97170.31
2019-01-03T22:05:11.756Z,97169.61
2019-01-03T22:07:41.183Z,97172.61
2019-01-03T22:10:10.979Z,97171.17
2019-01-03T22:12:40.407Z,97168.94
2019-01-03T22:15:10.599Z,97172.23
2019-01-03T22:17:40.028Z,97170.66
2019-01-03T22:20:10.303Z,97165.88
2019-01-03T22:22:39.832Z,97158.92
2019-01-03T22:25:09.727Z,97161.44
2019-01-03T22:27:39.159Z,97160.77
2019-01-03T22:30:10.903Z,97166.36
2019-01-03T22:32:40.324Z,97167.08
2019-01-03T22:35:09.857Z,97174.72
2019-01-03T22:37:39.292Z,97168.76
2019-01-03T22:40:09.786Z,97166.84
2019-01-03T22:42:39.212Z,97178.79
2019-01-03T22:45:09.952Z,97171.98
2019-01-03T22:47:39.447Z,97174.36
2019-01-03T22:50:10.903Z,97176.84
2019-01-03T22:52:40.333Z,97174.41
2019-01-03T22:55:09.763Z,97176.50
2019-01-03T22:57:39.195Z,97181.27
2019-01-03T23:00:28.128Z,97179.94
2019-01-03T23:02:57.582Z,97179.20
2019-01-03T23:05:27.033Z,97175.54
2019-01-03T23:07:56.466Z,97172.47
2019-01-03T23:10:25.884Z,97180.44
2019-01-03T23:12:55.314Z,97180.22
2019-01-03T23:15:24.818Z,97180.03
2019-01-03T23:17:54.244Z,97174.61
2019-01-03T23:20:23.685Z,97183.59
2019-01-03T23:22:53.106Z,97186.00
2019-01-03T23:25:22.537Z,97186.73
2019-01-03T23:27:51.968Z,97177.97
2019-01-03T23:30:21.400Z,97179.89
2019-01-03T23:32:50.836Z,97184.47
2019-01-03T23:35:20.271Z,97190.31
2019-01-03T23:37:49.700Z,97188.87
2019-01-03T23:40:19.132Z,97183.03
2019-01-03T23:42:48.551Z,97182.96
2019-01-03T23:45:20.687Z,97186.38
2019-01-03T23:47:51.922Z,97186.30
2019-01-03T23:50:28.237Z,97182.61
2019-01-03T23:52:57.655Z,97189.22
2019-01-03T23:55:27.360Z,97187.97
2019-01-03T23:57:56.803Z,97189.77
